sensor_id;sensor_type;location;lat;lon;timestamp;P1;durP1;ratioP1;P2;durP2;ratioP2
34541;SDS011;20784;51.332;12.410;2024-03-08T00:01:52;40.83;;;22.85;;
34541;SDS011;20784;51.332;12.410;2024-03-08T00:04:18;40.97;;;22.30;;
34541;SDS011;20784;51.332;12.410;2024-03-08T00:06:43;38.70;;;22.17;;
34541;SDS011;20784;51.332;12.410;2024-03-08T00:09:11;40.00;;;21.92;;
34541;SDS011;20784;51.332;12.410;2024-03-08T00:11:37;35.42;;;21.45;;
34541;SDS011;20784;51.332;12.410;2024-03-08T00:14:02;38.30;;;21.00;;
34541;SDS011;20784;51.332;12.410;2024-03-08T00:16:31;40.03;;;21.95;;
34541;SDS011;20784;51.332;12.410;2024-03-08T00:18:57;36.97;;;21.38;;
34541;SDS011;20784;51.332;12.410;2024-03-08T00:21:25;37.83;;;21.98;;
34541;SDS011;20784;51.332;12.410;2024-03-08T00:23:52;39.38;;;22.40;;
34541;SDS011;20784;51.332;12.410;2024-03-08T00:26:19;38.58;;;22.58;;
34541;SDS011;20784;51.332;12.410;2024-03-08T00:28:47;39.97;;;22.27;;
34541;SDS011;20784;51.332;12.410;2024-03-08T00:31:13;39.67;;;20.88;;
34541;SDS011;20784;51.332;12.410;2024-03-08T00:33:40;39.50;;;22.60;;
34541;SDS011;20784;51.332;12.410;2024-03-08T00:36:06;38.70;;;21.98;;
34541;SDS011;20784;51.332;12.410;2024-03-08T00:38:32;37.92;;;21.67;;
34541;SDS011;20784;51.332;12.410;2024-03-08T00:40:59;41.42;;;22.38;;
34541;SDS011;20784;51.332;12.410;2024-03-08T00:43:25;37.65;;;21.73;;
34541;SDS011;20784;51.332;12.410;2024-03-08T00:45:50;38.13;;;21.58;;
34541;SDS011;20784;51.332;12.410;2024-03-08T00:48:16;32.42;;;21.30;;
34541;SDS011;20784;51.332;12.410;2024-03-08T00:50:42;36.83;;;21.63;;
34541;SDS011;20784;51.332;12.410;2024-03-08T00:53:10;40.67;;;22.33;;
34541;SDS011;20784;51.332;12.410;2024-03-08T00:55:36;42.47;;;22.88;;
34541;SDS011;20784;51.332;12.410;2024-03-08T00:58:02;36.40;;;22.45;;
34541;SDS011;20784;51.332;12.410;2024-03-08T01:00:31;38.88;;;21.45;;
34541;SDS011;20784;51.332;12.410;2024-03-08T01:02:59;43.70;;;22.58;;
34541;SDS011;20784;51.332;12.410;2024-03-08T01:05:25;34.78;;;20.20;;
34541;SDS011;20784;51.332;12.410;2024-03-08T01:07:51;38.67;;;21.83;;
34541;SDS011;20784;51.332;12.410;2024-03-08T01:10:16;40.10;;;23.92;;
34541;SDS011;20784;51.332;12.410;2024-03-08T01:12:42;38.83;;;21.77;;
34541;SDS011;20784;51.332;12.410;2024-03-08T01:15:10;32.13;;;20.48;;
34541;SDS011;20784;51.332;12.410;2024-03-08T01:17:36;41.42;;;22.05;;
34541;SDS011;20784;51.332;12.410;2024-03-08T01:20:03;41.10;;;22.85;;
34541;SDS011;20784;51.332;12.410;2024-03-08T01:22:29;39.15;;;21.85;;
34541;SDS011;20784;51.332;12.410;2024-03-08T01:24:55;37.33;;;21.52;;
34541;SDS011;20784;51.332;12.410;2024-03-08T01:27:21;37.88;;;21.60;;
34541;SDS011;20784;51.332;12.410;2024-03-08T01:29:47;35.97;;;22.08;;
34541;SDS011;20784;51.332;12.410;2024-03-08T01:32:12;40.80;;;22.02;;
34541;SDS011;20784;51.332;12.410;2024-03-08T01:34:38;40.35;;;23.38;;
34541;SDS011;20784;51.332;12.410;2024-03-08T01:37:04;38.22;;;22.67;;
34541;SDS011;20784;51.332;12.410;2024-03-08T01:39:29;38.92;;;22.15;;
34541;SDS011;20784;51.332;12.410;2024-03-08T01:41:55;41.17;;;22.10;;
34541;SDS011;20784;51.332;12.410;2024-03-08T01:44:20;33.83;;;20.70;;
34541;SDS011;20784;51.332;12.410;2024-03-08T01:46:49;38.42;;;21.17;;
34541;SDS011;20784;51.332;12.410;2024-03-08T01:49:17;45.63;;;21.10;;
34541;SDS011;20784;51.332;12.410;2024-03-08T01:51:43;39.67;;;21.17;;
34541;SDS011;20784;51.332;12.410;2024-03-08T01:54:09;37.47;;;22.63;;
34541;SDS011;20784;51.332;12.410;2024-03-08T01:56:36;39.08;;;22.55;;
34541;SDS011;20784;51.332;12.410;2024-03-08T01:59:03;39.47;;;21.15;;
34541;SDS011;20784;51.332;12.410;2024-03-08T02:01:29;44.33;;;22.58;;
34541;SDS011;20784;51.332;12.410;2024-03-08T02:03:55;39.00;;;22.17;;
34541;SDS011;20784;51.332;12.410;2024-03-08T02:06:20;37.15;;;22.30;;
34541;SDS011;20784;51.332;12.410;2024-03-08T02:08:46;38.72;;;22.23;;
34541;SDS011;20784;51.332;12.410;2024-03-08T02:11:12;42.42;;;22.85;;
34541;SDS011;20784;51.332;12.410;2024-03-08T02:13:38;38.42;;;21.38;;
34541;SDS011;20784;51.332;12.410;2024-03-08T02:16:04;42.85;;;21.98;;
34541;SDS011;20784;51.332;12.410;2024-03-08T02:18:32;38.08;;;22.55;;
34541;SDS011;20784;51.332;12.410;2024-03-08T02:20:59;34.72;;;21.30;;
34541;SDS011;20784;51.332;12.410;2024-03-08T02:23:27;40.67;;;22.58;;
34541;SDS011;20784;51.332;12.410;2024-03-08T02:25:54;36.50;;;22.00;;
34541;SDS011;20784;51.332;12.410;2024-03-08T02:28:21;39.30;;;20.98;;
34541;SDS011;20784;51.332;12.410;2024-03-08T02:30:47;37.30;;;21.13;;
34541;SDS011;20784;51.332;12.410;2024-03-08T02:33:13;41.38;;;21.35;;
34541;SDS011;20784;51.332;12.410;2024-03-08T02:35:46;37.83;;;21.00;;
34541;SDS011;20784;51.332;12.410;2024-03-08T02:38:16;35.15;;;21.08;;
34541;SDS011;20784;51.332;12.410;2024-03-08T02:40:43;40.60;;;21.40;;
34541;SDS011;20784;51.332;12.410;2024-03-08T02:43:10;37.13;;;21.02;;
34541;SDS011;20784;51.332;12.410;2024-03-08T02:45:36;41.67;;;22.10;;
34541;SDS011;20784;51.332;12.410;2024-03-08T02:48:01;38.35;;;22.25;;
34541;SDS011;20784;51.332;12.410;2024-03-08T02:50:27;44.15;;;22.40;;
34541;SDS011;20784;51.332;12.410;2024-03-08T02:52:53;37.70;;;20.65;;
34541;SDS011;20784;51.332;12.410;2024-03-08T02:55:19;35.90;;;20.80;;
34541;SDS011;20784;51.332;12.410;2024-03-08T02:57:45;35.72;;;20.95;;
34541;SDS011;20784;51.332;12.410;2024-03-08T03:00:12;40.45;;;21.52;;
34541;SDS011;20784;51.332;12.410;2024-03-08T03:02:38;41.28;;;21.55;;
34541;SDS011;20784;51.332;12.410;2024-03-08T03:05:04;37.67;;;20.48;;
34541;SDS011;20784;51.332;12.410;2024-03-08T03:07:34;42.38;;;21.27;;
34541;SDS011;20784;51.332;12.410;2024-03-08T03:10:00;38.00;;;21.67;;
34541;SDS011;20784;51.332;12.410;2024-03-08T03:12:29;37.03;;;21.20;;
34541;SDS011;20784;51.332;12.410;2024-03-08T03:14:56;37.47;;;21.25;;
34541;SDS011;20784;51.332;12.410;2024-03-08T03:17:25;38.75;;;21.67;;
34541;SDS011;20784;51.332;12.410;2024-03-08T03:19:51;38.90;;;20.85;;
34541;SDS011;20784;51.332;12.410;2024-03-08T03:22:17;38.97;;;20.70;;
34541;SDS011;20784;51.332;12.410;2024-03-08T03:24:44;36.05;;;21.38;;
34541;SDS011;20784;51.332;12.410;2024-03-08T03:27:11;41.33;;;20.88;;
34541;SDS011;20784;51.332;12.410;2024-03-08T03:29:40;40.00;;;22.23;;
34541;SDS011;20784;51.332;12.410;2024-03-08T03:32:10;43.08;;;21.02;;
34541;SDS011;20784;51.332;12.410;2024-03-08T03:34:36;39.53;;;20.48;;
34541;SDS011;20784;51.332;12.410;2024-03-08T03:37:03;37.10;;;21.42;;
34541;SDS011;20784;51.332;12.410;2024-03-08T03:39:29;40.40;;;22.52;;
34541;SDS011;20784;51.332;12.410;2024-03-08T03:41:59;45.47;;;22.35;;
34541;SDS011;20784;51.332;12.410;2024-03-08T03:44:27;43.78;;;22.52;;
34541;SDS011;20784;51.332;12.410;2024-03-08T03:46:53;43.60;;;21.98;;
34541;SDS011;20784;51.332;12.410;2024-03-08T03:49:18;42.42;;;22.15;;
34541;SDS011;20784;51.332;12.410;2024-03-08T03:51:44;40.50;;;22.17;;
34541;SDS011;20784;51.332;12.410;2024-03-08T03:54:10;38.67;;;21.30;;
34541;SDS011;20784;51.332;12.410;2024-03-08T03:56:36;40.25;;;21.40;;
34541;SDS011;20784;51.332;12.410;2024-03-08T03:59:01;40.00;;;21.67;;
34541;SDS011;20784;51.332;12.410;2024-03-08T04:01:27;38.25;;;22.83;;
34541;SDS011;20784;51.332;12.410;2024-03-08T04:03:54;45.55;;;21.67;;
34541;SDS011;20784;51.332;12.410;2024-03-08T04:06:20;40.35;;;20.20;;
34541;SDS011;20784;51.332;12.410;2024-03-08T04:08:45;36.03;;;21.10;;
34541;SDS011;20784;51.332;12.410;2024-03-08T04:11:11;41.55;;;21.80;;
34541;SDS011;20784;51.332;12.410;2024-03-08T04:13:36;41.05;;;21.58;;
34541;SDS011;20784;51.332;12.410;2024-03-08T04:16:02;45.88;;;22.20;;
34541;SDS011;20784;51.332;12.410;2024-03-08T04:18:32;40.05;;;21.30;;
34541;SDS011;20784;51.332;12.410;2024-03-08T04:21:00;35.47;;;21.08;;
34541;SDS011;20784;51.332;12.410;2024-03-08T04:23:27;37.30;;;21.58;;
34541;SDS011;20784;51.332;12.410;2024-03-08T04:25:53;36.85;;;20.33;;
34541;SDS011;20784;51.332;12.410;2024-03-08T04:28:19;38.58;;;21.55;;
34541;SDS011;20784;51.332;12.410;2024-03-08T04:30:44;40.83;;;21.38;;
34541;SDS011;20784;51.332;12.410;2024-03-08T04:33:11;36.30;;;20.20;;
34541;SDS011;20784;51.332;12.410;2024-03-08T04:35:36;35.55;;;21.42;;
34541;SDS011;20784;51.332;12.410;2024-03-08T04:38:02;40.20;;;22.83;;
34541;SDS011;20784;51.332;12.410;2024-03-08T04:40:30;43.22;;;22.63;;
34541;SDS011;20784;51.332;12.410;2024-03-08T04:42:56;43.17;;;21.80;;
34541;SDS011;20784;51.332;12.410;2024-03-08T04:45:24;37.40;;;21.42;;
34541;SDS011;20784;51.332;12.410;2024-03-08T04:47:50;39.30;;;21.40;;
34541;SDS011;20784;51.332;12.410;2024-03-08T04:50:20;38.65;;;22.00;;
34541;SDS011;20784;51.332;12.410;2024-03-08T04:52:48;43.90;;;22.40;;
34541;SDS011;20784;51.332;12.410;2024-03-08T04:55:14;42.28;;;21.63;;
34541;SDS011;20784;51.332;12.410;2024-03-08T04:57:40;39.40;;;21.35;;
34541;SDS011;20784;51.332;12.410;2024-03-08T05:00:07;36.35;;;21.00;;
34541;SDS011;20784;51.332;12.410;2024-03-08T05:02:36;34.75;;;20.88;;
34541;SDS011;20784;51.332;12.410;2024-03-08T05:05:04;37.50;;;21.08;;
34541;SDS011;20784;51.332;12.410;2024-03-08T05:07:31;40.90;;;22.55;;
34541;SDS011;20784;51.332;12.410;2024-03-08T05:10:00;40.22;;;22.70;;
34541;SDS011;20784;51.332;12.410;2024-03-08T05:12:27;41.05;;;21.85;;
34541;SDS011;20784;51.332;12.410;2024-03-08T05:14:52;42.25;;;22.13;;
34541;SDS011;20784;51.332;12.410;2024-03-08T05:17:18;38.22;;;20.83;;
34541;SDS011;20784;51.332;12.410;2024-03-08T05:19:44;41.75;;;23.42;;
34541;SDS011;20784;51.332;12.410;2024-03-08T05:22:13;38.35;;;22.38;;
34541;SDS011;20784;51.332;12.410;2024-03-08T05:24:38;41.38;;;22.88;;
34541;SDS011;20784;51.332;12.410;2024-03-08T05:27:07;43.58;;;22.10;;
34541;SDS011;20784;51.332;12.410;2024-03-08T05:29:33;41.35;;;22.48;;
34541;SDS011;20784;51.332;12.410;2024-03-08T05:31:58;39.60;;;21.35;;
34541;SDS011;20784;51.332;12.410;2024-03-08T05:34:27;42.15;;;22.00;;
34541;SDS011;20784;51.332;12.410;2024-03-08T05:36:53;45.42;;;23.00;;
34541;SDS011;20784;51.332;12.410;2024-03-08T05:39:19;40.45;;;22.38;;
34541;SDS011;20784;51.332;12.410;2024-03-08T05:41:48;44.67;;;22.58;;
34541;SDS011;20784;51.332;12.410;2024-03-08T05:44:15;40.60;;;22.83;;
34541;SDS011;20784;51.332;12.410;2024-03-08T05:46:44;39.63;;;22.17;;
34541;SDS011;20784;51.332;12.410;2024-03-08T05:49:11;40.53;;;22.67;;
34541;SDS011;20784;51.332;12.410;2024-03-08T05:51:38;41.50;;;23.55;;
34541;SDS011;20784;51.332;12.410;2024-03-08T05:54:08;42.67;;;22.67;;
34541;SDS011;20784;51.332;12.410;2024-03-08T05:56:35;49.15;;;22.98;;
34541;SDS011;20784;51.332;12.410;2024-03-08T05:59:01;50.63;;;22.67;;
34541;SDS011;20784;51.332;12.410;2024-03-08T06:01:27;39.85;;;22.80;;
34541;SDS011;20784;51.332;12.410;2024-03-08T06:03:53;43.30;;;22.35;;
34541;SDS011;20784;51.332;12.410;2024-03-08T06:06:21;53.10;;;26.65;;
34541;SDS011;20784;51.332;12.410;2024-03-08T06:08:47;47.95;;;25.25;;
34541;SDS011;20784;51.332;12.410;2024-03-08T06:11:16;48.80;;;26.27;;
34541;SDS011;20784;51.332;12.410;2024-03-08T06:13:43;56.22;;;24.40;;
34541;SDS011;20784;51.332;12.410;2024-03-08T06:16:09;44.85;;;25.17;;
34541;SDS011;20784;51.332;12.410;2024-03-08T06:18:35;42.38;;;23.48;;
34541;SDS011;20784;51.332;12.410;2024-03-08T06:21:02;38.33;;;23.27;;
34541;SDS011;20784;51.332;12.410;2024-03-08T06:23:31;41.35;;;23.65;;
34541;SDS011;20784;51.332;12.410;2024-03-08T06:25:57;47.15;;;24.38;;
34541;SDS011;20784;51.332;12.410;2024-03-08T06:28:22;42.33;;;23.10;;
34541;SDS011;20784;51.332;12.410;2024-03-08T06:30:48;47.15;;;24.45;;
34541;SDS011;20784;51.332;12.410;2024-03-08T06:33:16;50.00;;;26.67;;
34541;SDS011;20784;51.332;12.410;2024-03-08T06:35:44;45.33;;;24.60;;
34541;SDS011;20784;51.332;12.410;2024-03-08T06:38:10;44.45;;;24.88;;
34541;SDS011;20784;51.332;12.410;2024-03-08T06:40:36;49.38;;;27.08;;
34541;SDS011;20784;51.332;12.410;2024-03-08T06:43:02;47.10;;;25.30;;
34541;SDS011;20784;51.332;12.410;2024-03-08T06:45:30;44.60;;;24.35;;
34541;SDS011;20784;51.332;12.410;2024-03-08T06:47:56;47.25;;;26.23;;
34541;SDS011;20784;51.332;12.410;2024-03-08T06:50:22;45.42;;;24.90;;
34541;SDS011;20784;51.332;12.410;2024-03-08T06:52:47;42.95;;;23.73;;
34541;SDS011;20784;51.332;12.410;2024-03-08T06:55:18;39.87;;;23.33;;
34541;SDS011;20784;51.332;12.410;2024-03-08T06:57:47;41.55;;;23.35;;
34541;SDS011;20784;51.332;12.410;2024-03-08T07:00:12;44.22;;;23.95;;
34541;SDS011;20784;51.332;12.410;2024-03-08T07:02:44;41.45;;;24.23;;
34541;SDS011;20784;51.332;12.410;2024-03-08T07:05:11;40.88;;;23.42;;
34541;SDS011;20784;51.332;12.410;2024-03-08T07:07:36;46.97;;;23.83;;
34541;SDS011;20784;51.332;12.410;2024-03-08T07:10:02;42.72;;;23.08;;
34541;SDS011;20784;51.332;12.410;2024-03-08T07:12:29;40.38;;;24.33;;
34541;SDS011;20784;51.332;12.410;2024-03-08T07:14:55;45.95;;;24.85;;
34541;SDS011;20784;51.332;12.410;2024-03-08T07:17:20;38.85;;;22.55;;
34541;SDS011;20784;51.332;12.410;2024-03-08T07:19:46;43.17;;;23.60;;
34541;SDS011;20784;51.332;12.410;2024-03-08T07:22:12;46.45;;;24.02;;
34541;SDS011;20784;51.332;12.410;2024-03-08T07:24:46;45.67;;;24.08;;
34541;SDS011;20784;51.332;12.410;2024-03-08T07:27:16;40.85;;;23.73;;
34541;SDS011;20784;51.332;12.410;2024-03-08T07:29:46;42.35;;;23.05;;
34541;SDS011;20784;51.332;12.410;2024-03-08T07:32:15;46.25;;;24.45;;
34541;SDS011;20784;51.332;12.410;2024-03-08T07:37:30;43.45;;;22.38;;
34541;SDS011;20784;51.332;12.410;2024-03-08T07:39:56;43.83;;;22.25;;
34541;SDS011;20784;51.332;12.410;2024-03-08T07:42:23;38.30;;;22.27;;
34541;SDS011;20784;51.332;12.410;2024-03-08T07:44:54;41.75;;;22.45;;
34541;SDS011;20784;51.332;12.410;2024-03-08T07:47:22;44.67;;;23.55;;
34541;SDS011;20784;51.332;12.410;2024-03-08T07:50:18;39.03;;;23.10;;
34541;SDS011;20784;51.332;12.410;2024-03-08T07:52:54;37.30;;;20.50;;
34541;SDS011;20784;51.332;12.410;2024-03-08T07:55:28;39.10;;;23.17;;
34541;SDS011;20784;51.332;12.410;2024-03-08T07:58:02;36.13;;;21.55;;
34541;SDS011;20784;51.332;12.410;2024-03-08T08:00:38;40.22;;;23.55;;
34541;SDS011;20784;51.332;12.410;2024-03-08T08:03:07;41.65;;;22.92;;
34541;SDS011;20784;51.332;12.410;2024-03-08T08:05:38;43.58;;;23.23;;
34541;SDS011;20784;51.332;12.410;2024-03-08T08:08:04;38.80;;;23.33;;
34541;SDS011;20784;51.332;12.410;2024-03-08T08:10:32;40.33;;;22.73;;
34541;SDS011;20784;51.332;12.410;2024-03-08T08:13:02;40.05;;;23.15;;
34541;SDS011;20784;51.332;12.410;2024-03-08T08:15:29;38.88;;;22.08;;
34541;SDS011;20784;51.332;12.410;2024-03-08T08:17:55;37.60;;;22.00;;
34541;SDS011;20784;51.332;12.410;2024-03-08T08:20:20;36.22;;;21.60;;
34541;SDS011;20784;51.332;12.410;2024-03-08T08:22:47;37.40;;;22.60;;
34541;SDS011;20784;51.332;12.410;2024-03-08T08:25:13;37.53;;;21.77;;
34541;SDS011;20784;51.332;12.410;2024-03-08T08:27:40;43.22;;;23.10;;
34541;SDS011;20784;51.332;12.410;2024-03-08T08:30:10;38.17;;;22.02;;
34541;SDS011;20784;51.332;12.410;2024-03-08T08:32:37;37.67;;;21.70;;
34541;SDS011;20784;51.332;12.410;2024-03-08T08:35:04;35.67;;;21.48;;
34541;SDS011;20784;51.332;12.410;2024-03-08T08:37:31;39.72;;;22.00;;
34541;SDS011;20784;51.332;12.410;2024-03-08T08:39:57;36.42;;;20.63;;
34541;SDS011;20784;51.332;12.410;2024-03-08T08:42:23;34.22;;;20.85;;
34541;SDS011;20784;51.332;12.410;2024-03-08T08:44:49;33.10;;;21.60;;
34541;SDS011;20784;51.332;12.410;2024-03-08T08:47:15;32.28;;;21.20;;
34541;SDS011;20784;51.332;12.410;2024-03-08T08:49:43;35.78;;;20.92;;
34541;SDS011;20784;51.332;12.410;2024-03-08T08:52:12;37.53;;;21.05;;
34541;SDS011;20784;51.332;12.410;2024-03-08T08:54:38;36.72;;;20.83;;
34541;SDS011;20784;51.332;12.410;2024-03-08T08:57:03;34.17;;;21.90;;
34541;SDS011;20784;51.332;12.410;2024-03-08T08:59:32;38.20;;;22.23;;
34541;SDS011;20784;51.332;12.410;2024-03-08T09:02:00;33.40;;;22.38;;
34541;SDS011;20784;51.332;12.410;2024-03-08T09:04:29;38.72;;;21.55;;
34541;SDS011;20784;51.332;12.410;2024-03-08T09:06:55;37.75;;;21.58;;
34541;SDS011;20784;51.332;12.410;2024-03-08T09:09:21;33.08;;;21.45;;
34541;SDS011;20784;51.332;12.410;2024-03-08T09:11:47;34.60;;;20.67;;
34541;SDS011;20784;51.332;12.410;2024-03-08T09:14:14;34.53;;;21.77;;
34541;SDS011;20784;51.332;12.410;2024-03-08T09:16:40;36.40;;;21.98;;
34541;SDS011;20784;51.332;12.410;2024-03-08T09:19:05;34.97;;;22.40;;
34541;SDS011;20784;51.332;12.410;2024-03-08T09:21:31;38.53;;;21.17;;
34541;SDS011;20784;51.332;12.410;2024-03-08T09:23:57;32.45;;;20.65;;
34541;SDS011;20784;51.332;12.410;2024-03-08T09:26:23;37.97;;;21.30;;
34541;SDS011;20784;51.332;12.410;2024-03-08T09:28:49;36.50;;;21.98;;
34541;SDS011;20784;51.332;12.410;2024-03-08T09:31:14;40.92;;;22.60;;
34541;SDS011;20784;51.332;12.410;2024-03-08T09:33:41;33.42;;;20.88;;
34541;SDS011;20784;51.332;12.410;2024-03-08T09:36:07;35.17;;;22.10;;
34541;SDS011;20784;51.332;12.410;2024-03-08T09:38:33;33.53;;;21.65;;
34541;SDS011;20784;51.332;12.410;2024-03-08T09:41:01;32.80;;;20.55;;
34541;SDS011;20784;51.332;12.410;2024-03-08T09:43:27;35.33;;;21.92;;
34541;SDS011;20784;51.332;12.410;2024-03-08T09:45:53;35.20;;;22.10;;
34541;SDS011;20784;51.332;12.410;2024-03-08T09:48:20;33.60;;;21.42;;
34541;SDS011;20784;51.332;12.410;2024-03-08T09:50:46;34.78;;;21.92;;
34541;SDS011;20784;51.332;12.410;2024-03-08T09:53:13;37.45;;;21.50;;
34541;SDS011;20784;51.332;12.410;2024-03-08T09:55:38;35.92;;;21.83;;
34541;SDS011;20784;51.332;12.410;2024-03-08T10:01:01;33.65;;;20.33;;
34541;SDS011;20784;51.332;12.410;2024-03-08T10:03:27;37.80;;;21.75;;
34541;SDS011;20784;51.332;12.410;2024-03-08T10:05:54;38.13;;;20.70;;
34541;SDS011;20784;51.332;12.410;2024-03-08T10:08:25;32.92;;;21.75;;
34541;SDS011;20784;51.332;12.410;2024-03-08T10:10:56;39.33;;;21.15;;
34541;SDS011;20784;51.332;12.410;2024-03-08T10:13:23;38.90;;;22.65;;
34541;SDS011;20784;51.332;12.410;2024-03-08T10:15:51;34.92;;;21.88;;
34541;SDS011;20784;51.332;12.410;2024-03-08T10:18:17;33.08;;;20.25;;
34541;SDS011;20784;51.332;12.410;2024-03-08T10:20:43;33.13;;;21.30;;
34541;SDS011;20784;51.332;12.410;2024-03-08T10:23:08;34.28;;;21.23;;
34541;SDS011;20784;51.332;12.410;2024-03-08T10:25:37;32.80;;;20.45;;
34541;SDS011;20784;51.332;12.410;2024-03-08T10:28:03;32.05;;;20.67;;
34541;SDS011;20784;51.332;12.410;2024-03-08T10:30:29;36.00;;;20.42;;
34541;SDS011;20784;51.332;12.410;2024-03-08T10:32:55;36.50;;;20.92;;
34541;SDS011;20784;51.332;12.410;2024-03-08T10:35:21;35.15;;;21.17;;
34541;SDS011;20784;51.332;12.410;2024-03-08T10:37:49;31.92;;;20.48;;
34541;SDS011;20784;51.332;12.410;2024-03-08T10:40:25;33.65;;;20.05;;
34541;SDS011;20784;51.332;12.410;2024-03-08T10:42:58;30.92;;;20.20;;
34541;SDS011;20784;51.332;12.410;2024-03-08T10:45:40;34.50;;;20.20;;
34541;SDS011;20784;51.332;12.410;2024-03-08T10:48:17;31.65;;;21.02;;
34541;SDS011;20784;51.332;12.410;2024-03-08T10:51:04;31.88;;;19.40;;
34541;SDS011;20784;51.332;12.410;2024-03-08T10:53:32;33.30;;;20.30;;
34541;SDS011;20784;51.332;12.410;2024-03-08T10:55:59;32.90;;;20.52;;
34541;SDS011;20784;51.332;12.410;2024-03-08T10:58:25;31.98;;;20.63;;
34541;SDS011;20784;51.332;12.410;2024-03-08T11:00:53;32.65;;;20.83;;
34541;SDS011;20784;51.332;12.410;2024-03-08T11:06:06;29.95;;;19.65;;
34541;SDS011;20784;51.332;12.410;2024-03-08T11:08:46;29.92;;;19.75;;
34541;SDS011;20784;51.332;12.410;2024-03-08T11:11:28;34.83;;;19.90;;
34541;SDS011;20784;51.332;12.410;2024-03-08T11:13:59;31.45;;;19.88;;
34541;SDS011;20784;51.332;12.410;2024-03-08T11:18:59;33.83;;;21.25;;
34541;SDS011;20784;51.332;12.410;2024-03-08T11:21:29;33.47;;;20.67;;
34541;SDS011;20784;51.332;12.410;2024-03-08T11:24:01;33.22;;;19.02;;
34541;SDS011;20784;51.332;12.410;2024-03-08T11:26:30;31.35;;;19.02;;
34541;SDS011;20784;51.332;12.410;2024-03-08T11:29:22;31.25;;;19.27;;
34541;SDS011;20784;51.332;12.410;2024-03-08T11:32:07;29.50;;;18.63;;
34541;SDS011;20784;51.332;12.410;2024-03-08T11:34:33;30.38;;;19.30;;
34541;SDS011;20784;51.332;12.410;2024-03-08T11:36:59;30.00;;;17.95;;
34541;SDS011;20784;51.332;12.410;2024-03-08T11:39:25;31.08;;;18.90;;
34541;SDS011;20784;51.332;12.410;2024-03-08T11:41:51;27.30;;;18.05;;
34541;SDS011;20784;51.332;12.410;2024-03-08T11:44:19;28.45;;;19.13;;
34541;SDS011;20784;51.332;12.410;2024-03-08T11:46:45;27.77;;;17.42;;
34541;SDS011;20784;51.332;12.410;2024-03-08T11:49:14;26.42;;;17.23;;
34541;SDS011;20784;51.332;12.410;2024-03-08T11:51:41;29.83;;;18.92;;
34541;SDS011;20784;51.332;12.410;2024-03-08T11:54:11;32.50;;;18.88;;
34541;SDS011;20784;51.332;12.410;2024-03-08T11:56:38;30.10;;;18.50;;
34541;SDS011;20784;51.332;12.410;2024-03-08T11:59:10;31.73;;;19.20;;
34541;SDS011;20784;51.332;12.410;2024-03-08T12:01:57;27.85;;;18.63;;
34541;SDS011;20784;51.332;12.410;2024-03-08T12:04:27;29.27;;;18.70;;
34541;SDS011;20784;51.332;12.410;2024-03-08T12:06:55;31.13;;;19.00;;
34541;SDS011;20784;51.332;12.410;2024-03-08T12:09:21;28.92;;;18.23;;
34541;SDS011;20784;51.332;12.410;2024-03-08T12:11:49;27.77;;;18.08;;
34541;SDS011;20784;51.332;12.410;2024-03-08T12:14:19;32.35;;;18.08;;
34541;SDS011;20784;51.332;12.410;2024-03-08T12:16:49;27.85;;;18.20;;
34541;SDS011;20784;51.332;12.410;2024-03-08T12:19:19;28.63;;;17.67;;
34541;SDS011;20784;51.332;12.410;2024-03-08T12:21:50;29.58;;;18.88;;
34541;SDS011;20784;51.332;12.410;2024-03-08T12:24:25;28.90;;;17.77;;
34541;SDS011;20784;51.332;12.410;2024-03-08T12:27:19;31.92;;;17.83;;
34541;SDS011;20784;51.332;12.410;2024-03-08T12:29:48;27.13;;;17.30;;
34541;SDS011;20784;51.332;12.410;2024-03-08T12:32:25;28.52;;;19.30;;
34541;SDS011;20784;51.332;12.410;2024-03-08T12:34:55;32.38;;;19.38;;
34541;SDS011;20784;51.332;12.410;2024-03-08T12:40:34;32.78;;;19.35;;
34541;SDS011;20784;51.332;12.410;2024-03-08T12:42:59;29.77;;;19.83;;
34541;SDS011;20784;51.332;12.410;2024-03-08T12:45:26;32.88;;;19.38;;
34541;SDS011;20784;51.332;12.410;2024-03-08T12:47:52;28.52;;;19.58;;
34541;SDS011;20784;51.332;12.410;2024-03-08T12:50:19;31.02;;;18.98;;
34541;SDS011;20784;51.332;12.410;2024-03-08T12:52:45;27.90;;;19.02;;
34541;SDS011;20784;51.332;12.410;2024-03-08T12:55:11;30.70;;;18.38;;
34541;SDS011;20784;51.332;12.410;2024-03-08T12:57:37;35.75;;;18.35;;
34541;SDS011;20784;51.332;12.410;2024-03-08T13:00:09;31.23;;;19.63;;
34541;SDS011;20784;51.332;12.410;2024-03-08T13:02:47;28.80;;;18.17;;
34541;SDS011;20784;51.332;12.410;2024-03-08T13:05:24;32.47;;;20.02;;
34541;SDS011;20784;51.332;12.410;2024-03-08T13:07:49;34.63;;;21.58;;
34541;SDS011;20784;51.332;12.410;2024-03-08T13:10:18;34.47;;;21.45;;
34541;SDS011;20784;51.332;12.410;2024-03-08T13:12:45;32.50;;;21.33;;
34541;SDS011;20784;51.332;12.410;2024-03-08T13:15:24;35.58;;;22.45;;
34541;SDS011;20784;51.332;12.410;2024-03-08T13:17:53;32.60;;;20.20;;
34541;SDS011;20784;51.332;12.410;2024-03-08T13:20:19;30.65;;;20.08;;
34541;SDS011;20784;51.332;12.410;2024-03-08T13:22:46;30.55;;;20.50;;
34541;SDS011;20784;51.332;12.410;2024-03-08T13:25:12;37.65;;;22.02;;
34541;SDS011;20784;51.332;12.410;2024-03-08T13:27:41;31.35;;;20.77;;
34541;SDS011;20784;51.332;12.410;2024-03-08T13:30:12;32.50;;;21.15;;
34541;SDS011;20784;51.332;12.410;2024-03-08T13:32:39;31.17;;;20.77;;
34541;SDS011;20784;51.332;12.410;2024-03-08T13:35:08;32.90;;;20.80;;
34541;SDS011;20784;51.332;12.410;2024-03-08T13:37:40;34.78;;;21.95;;
34541;SDS011;20784;51.332;12.410;2024-03-08T13:40:07;32.45;;;21.33;;
34541;SDS011;20784;51.332;12.410;2024-03-08T13:42:41;39.15;;;21.33;;
34541;SDS011;20784;51.332;12.410;2024-03-08T13:45:08;39.70;;;22.25;;
34541;SDS011;20784;51.332;12.410;2024-03-08T13:47:37;39.05;;;22.65;;
34541;SDS011;20784;51.332;12.410;2024-03-08T13:50:11;33.47;;;21.20;;
34541;SDS011;20784;51.332;12.410;2024-03-08T13:52:37;35.83;;;22.00;;
34541;SDS011;20784;51.332;12.410;2024-03-08T13:55:04;34.72;;;22.55;;
34541;SDS011;20784;51.332;12.410;2024-03-08T13:57:33;35.20;;;22.13;;
34541;SDS011;20784;51.332;12.410;2024-03-08T14:00:01;34.78;;;21.98;;
34541;SDS011;20784;51.332;12.410;2024-03-08T14:02:39;29.83;;;20.08;;
34541;SDS011;20784;51.332;12.410;2024-03-08T14:05:30;34.28;;;21.60;;
34541;SDS011;20784;51.332;12.410;2024-03-08T14:08:11;34.35;;;21.98;;
34541;SDS011;20784;51.332;12.410;2024-03-08T14:11:15;36.95;;;21.60;;
34541;SDS011;20784;51.332;12.410;2024-03-08T14:14:07;34.60;;;20.83;;
34541;SDS011;20784;51.332;12.410;2024-03-08T14:16:42;29.58;;;20.33;;
34541;SDS011;20784;51.332;12.410;2024-03-08T14:21:47;32.13;;;21.02;;
34541;SDS011;20784;51.332;12.410;2024-03-08T14:24:16;34.50;;;22.05;;
34541;SDS011;20784;51.332;12.410;2024-03-08T14:26:42;32.13;;;20.58;;
34541;SDS011;20784;51.332;12.410;2024-03-08T14:29:08;31.85;;;21.08;;
34541;SDS011;20784;51.332;12.410;2024-03-08T14:31:36;37.67;;;20.77;;